Date,TemperatureHighF,TemperatureAvgF,TemperatureLowF,DewpointHighF,DewpointAvgF,DewpointLowF,HumidityHigh,HumidityAvg,HumidityLow,PressureMaxIn,PressureMinIn,WindSpeedMaxMPH,WindSpeedAvgMPH,GustSpeedMaxMPH,PrecipitationSumIn
2013-3-1,44.6,40.4,36.5,37.2,31.5,27.0,94,71,58,29.68,29.52,13,2,14,0.00
2013-3-2,43.8,39.7,34.8,30.1,28.1,26.8,73,63,53,29.69,29.62,8,1,9,0.00
2013-3-3,42.2,37.7,32.9,30.5,28.4,26.0,86,69,56,29.65,29.56,9,1,11,0.00
2013-3-4,41.3,35.8,30.1,29.4,24.3,21.0,87,64,50,29.73,29.58,14,4,17,0.00
2013-3-5,44.9,37.9,32.1,33.9,30.2,23.0,92,74,58,30.06,29.73,10,2,13,0.00
2013-3-6,42.7,38.4,34.8,36.1,34.4,32.7,94,85,70,30.06,29.92,28,6,28,0.04
2013-3-7,36.9,34.3,32.8,34.9,33.0,31.6,96,95,88,29.93,29.88,28,6,32,0.84
2013-3-8,37.9,33.8,32.3,34.1,32.0,30.8,97,93,76,30.07,29.86,20,4,20,0.53
2013-3-9,41.3,35.6,29.6,32.0,29.9,28.0,94,80,65,30.33,30.06,14,3,18,0.17
2013-3-10,45.4,36.9,29.5,34.9,32.0,28.0,95,83,63,30.41,30.33,10,1,11,0.00
2013-3-11,47.1,41.0,35.8,42.0,37.5,32.8,93,87,79,30.35,30.18,4,1,10,0.00
2013-3-12,52.9,48.1,42.4,52.3,46.8,40.0,98,95,90,30.20,29.76,22,3,22,1.17
2013-3-13,53.0,46.5,34.5,49.2,35.8,23.0,98,70,36,29.80,29.70,8,2,11,0.08
2013-3-14,37.5,33.2,25.7,27.0,18.2,7.0,78,55,40,29.86,29.73,10,3,18,0.00
2013-3-15,41.5,31.9,22.5,29.0,15.8,7.0,71,53,26,29.90,29.68,7,2,11,0.00
2013-3-16,40.9,35.6,30.2,28.0,20.0,10.0,74,55,29,29.88,29.70,6,1,11,0.00
2013-3-17,39.8,34.0,28.0,25.0,14.8,5.0,71,48,27,30.31,29.88,6,1,12,0.00
2013-3-18,36.2,29.9,21.1,26.0,13.3,1.0,72,51,38,30.46,30.23,6,1,11,0.00
2013-3-19,41.7,36.0,31.0,41.0,34.4,28.0,96,94,82,30.23,29.52,11,3,20,1.00
2013-3-20,41.8,35.3,30.4,30.0,23.2,19.0,90,64,40,29.83,29.68,9,3,15,0.00
2013-3-21,40.7,33.1,29.6,31.0,26.8,22.0,95,79,52,29.84,29.60,7,1,11,0.00
2013-3-22,40.4,34.8,27.8,29.0,22.4,18.0,95,63,42,29.77,29.61,10,2,17,0.18
2013-3-23,43.5,37.3,31.4,25.0,20.7,17.0,74,53,36,29.81,29.67,11,4,19,0.00
2013-3-24,47.7,39.0,32.9,32.0,25.6,20.0,83,60,37,29.85,29.75,8,2,12,0.00
2013-3-25,46.8,38.5,32.3,35.0,30.1,25.0,91,73,46,29.77,29.47,14,3,21,0.03
2013-3-26,48.8,40.8,33.6,33.0,28.8,24.0,93,65,39,29.79,29.47,6,2,11,0.05
2013-3-27,52.7,43.3,32.6,33.0,24.3,21.0,72,49,30,29.86,29.75,9,2,12,0.00
2013-3-28,48.3,42.6,37.7,37.0,32.9,28.0,91,70,46,30.03,29.85,6,2,12,0.01
2013-3-29,55.6,46.5,38.4,36.0,33.6,30.0,78,62,42,30.06,29.99,6,1,10,0.00
2013-3-30,54.5,46.0,35.3,36.0,31.8,26.0,83,59,35,30.11,30.01,9,2,10,0.00
2013-3-31,53.8,42.8,29.3,44.0,34.5,25.0,92,74,48,30.14,29.76,7,2,16,0.15